KHAI/HAI METAR and TAF weather

Enter ICAO airport designator
Station Type Date Time Source
KHAI METAR 2019/12/07 07:15 UTC NOAA

KHAI 070715Z AUTO 00000KT 10SM CLR M06/M08 A3037 RMK AO2 T10641080


Station Type Date Time Source
KHAI Decoded METAR 2019/12/07 07:15 UTC NOAA

Station name not available
Dec 07, 2019 - 02:15 AM EST / 2019.12.07 0715 UTC
Wind: Calm:0
Visibility: 10 mile(s):0
Sky conditions: clear
Temperature: 20.5 F (-6.4 C)
Dew Point: 17.6 F (-8.0 C)
Relative Humidity: 88%
Pressure (altimeter): 30.37 in. Hg (1028 hPa)
ob: KHAI 070715Z AUTO 00000KT 10SM CLR M06/M08 A3037 RMK AO2 T10641080
cycle: 7

Station Type Date Time Source
KHAI TAF UTC NOAA

Error!

Example: see airport list